Time;durP1;ratioP1;P1;durP2;ratioP2;P2;SDS_P1;SDS_P2;PMS_P1;PMS_P2;Temp;Humidity;BMP_temperature;BMP_pressure;BME280_temperature;BME280_humidity;BME280_pressure;Samples;Min_cycle;Max_cycle;Signal;HPM_P1;HPM_P2
2024/01/04 00:00:36;;;;;;;;;;;8.80;99.90;;;;;;5065343;28;20007;-75
2024/01/04 00:03:02;;;;;;;;;;;8.80;99.90;;;;;;5057070;28;20115;-75
2024/01/04 00:05:29;;;;;;;;;;;8.80;99.90;;;;;;5063509;28;19998;-76
2024/01/04 00:07:55;;;;;;;;;;;8.80;99.90;;;;;;5060050;28;25079;-76
2024/01/04 00:10:22;;;;;;;;;;;8.80;99.90;;;;;;5064563;28;20034;-75
2024/01/04 00:12:49;;;;;;;;;;;8.80;99.90;;;;;;5063757;28;20087;-75
2024/01/04 00:15:15;;;;;;;;;;;8.80;99.90;;;;;;5064890;28;25063;-76
2024/01/04 00:17:43;;;;;;;;;;;8.80;99.90;;;;;;5064360;28;19982;-75
2024/01/04 00:20:10;;;;;;;;;;;8.80;99.90;;;;;;5063269;28;25069;-76
2024/01/04 00:22:37;;;;;;;;;;;8.80;99.90;;;;;;5071277;28;20096;-76
2024/01/04 00:25:04;;;;;;;;;;;8.80;99.90;;;;;;5068972;28;25082;-74
2024/01/04 00:27:30;;;;;;;;;;;8.80;99.90;;;;;;5068157;28;20304;-75
2024/01/04 00:29:57;;;;;;;;;;;8.80;99.90;;;;;;5068194;28;25063;-75
2024/01/04 00:32:23;;;;;;;;;;;8.80;99.90;;;;;;5065728;28;20014;-76
2024/01/04 00:34:51;;;;;;;;;;;8.80;99.90;;;;;;5065474;28;20223;-76
2024/01/04 00:37:18;;;;;;;;;;;8.80;99.90;;;;;;5069689;28;20074;-75
2024/01/04 00:39:44;;;;;;;;;;;8.90;99.90;;;;;;5066475;28;20150;-77
2024/01/04 00:42:11;;;;;;;;;;;8.80;99.90;;;;;;5064304;28;20153;-75
2024/01/04 00:44:37;;;;;;;;;;;8.80;99.90;;;;;;5065679;28;20031;-76
2024/01/04 00:47:04;;;;;;;;;;;8.80;99.90;;;;;;5066061;28;25086;-74
2024/01/04 00:49:31;;;;;;;;;;;8.80;99.90;;;;;;5067773;28;19986;-76
2024/01/04 00:51:59;;;;;;;;;;;8.80;99.90;;;;;;5064408;28;20147;-75
2024/01/04 00:54:26;;;;;;;;;;;8.80;99.90;;;;;;5069093;28;19981;-74
2024/01/04 00:56:52;;;;;;;;;;;8.80;99.90;;;;;;5066535;28;25087;-75
2024/01/04 00:59:19;;;;;;;;;;;8.90;99.90;;;;;;5068073;28;19981;-75
2024/01/04 01:01:45;;;;;;;;;;;8.90;99.90;;;;;;5066106;28;25055;-75
2024/01/04 01:04:12;;;;;;;;;;;8.80;99.90;;;;;;5067701;28;19992;-75
2024/01/04 01:06:38;;;;;;;;;;;8.90;99.90;;;;;;5058523;28;25140;-76
2024/01/04 01:09:06;;;;;;;;;;;8.90;99.90;;;;;;5064791;28;19986;-75
2024/01/04 01:11:33;;;;;;;;;;;8.90;99.90;;;;;;5067129;28;25077;-75
2024/01/04 01:13:59;;;;;;;;;;;8.90;99.90;;;;;;5066634;28;20063;-76
2024/01/04 01:16:26;;;;;;;;;;;8.90;99.90;;;;;;5064219;28;25132;-75
2024/01/04 01:18:52;;;;;;;;;;;8.90;99.90;;;;;;5066254;28;21344;-76
2024/01/04 01:21:19;;;;;;;;;;;8.80;99.90;;;;;;5064899;28;25068;-76
2024/01/04 01:23:45;;;;;;;;;;;8.90;99.90;;;;;;5062444;28;19979;-76
2024/01/04 01:26:13;;;;;;;;;;;8.80;99.90;;;;;;5065564;28;20160;-75
2024/01/04 01:28:39;;;;;;;;;;;8.90;99.90;;;;;;5070882;28;25110;-76
2024/01/04 01:31:06;;;;;;;;;;;8.90;99.90;;;;;;5065467;28;19983;-76
2024/01/04 01:33:33;;;;;;;;;;;8.90;99.90;;;;;;5068014;28;25078;-76
2024/01/04 01:36:01;;;;;;;;;;;8.90;99.90;;;;;;5066208;28;19983;-75
2024/01/04 01:38:28;;;;;;;;;;;8.90;99.90;;;;;;5067179;28;20577;-75
2024/01/04 01:40:54;;;;;;;;;;;8.90;99.90;;;;;;5061349;28;20123;-76
2024/01/04 01:43:22;;;;;;;;;;;8.90;99.90;;;;;;5064969;28;20140;-76
2024/01/04 01:45:49;;;;;;;;;;;8.90;99.90;;;;;;5060943;28;20266;-76
2024/01/04 01:48:15;;;;;;;;;;;8.90;99.90;;;;;;5062808;28;25071;-77
2024/01/04 01:50:42;;;;;;;;;;;8.90;99.90;;;;;;5064352;28;19986;-77
2024/01/04 01:53:08;;;;;;;;;;;8.90;99.90;;;;;;5063743;28;25066;-77
2024/01/04 01:55:35;;;;;;;;;;;8.90;99.90;;;;;;5064300;28;20544;-75
2024/01/04 01:58:02;;;;;;;;;;;8.80;99.90;;;;;;5066592;28;25067;-76
2024/01/04 02:00:30;;;;;;;;;;;8.90;99.90;;;;;;5059747;28;19989;-75
2024/01/04 02:02:57;;;;;;;;;;;8.90;99.90;;;;;;5061283;28;21400;-76
2024/01/04 02:05:24;;;;;;;;;;;8.90;99.90;;;;;;5061903;28;19976;-76
2024/01/04 02:07:50;;;;;;;;;;;8.90;99.90;;;;;;5062432;28;20184;-76
2024/01/04 02:10:16;;;;;;;;;;;8.90;99.90;;;;;;5063269;28;25085;-75
2024/01/04 02:12:42;;;;;;;;;;;8.90;99.90;;;;;;5056580;28;20005;-74
2024/01/04 02:15:09;;;;;;;;;;;8.90;99.90;;;;;;5062738;28;25073;-76
2024/01/04 02:17:37;;;;;;;;;;;8.90;99.90;;;;;;5061711;28;19976;-76
2024/01/04 02:20:04;;;;;;;;;;;8.90;99.90;;;;;;5062579;28;20121;-74
2024/01/04 02:22:31;;;;;;;;;;;8.90;99.90;;;;;;5066590;28;25073;-75
2024/01/04 02:24:59;;;;;;;;;;;8.90;99.90;;;;;;5061635;28;19991;-75
2024/01/04 02:27:25;;;;;;;;;;;8.90;99.90;;;;;;5064650;28;20113;-75
2024/01/04 02:29:52;;;;;;;;;;;8.90;99.90;;;;;;5062361;28;20514;-76
2024/01/04 02:32:18;;;;;;;;;;;8.90;99.90;;;;;;5067850;28;25131;-75
2024/01/04 02:34:45;;;;;;;;;;;8.90;99.90;;;;;;5064941;28;19982;-75
2024/01/04 02:37:11;;;;;;;;;;;8.90;99.90;;;;;;5062574;28;20566;-76
2024/01/04 02:39:38;;;;;;;;;;;8.90;99.90;;;;;;5063170;28;20120;-76
2024/01/04 02:42:06;;;;;;;;;;;8.90;99.90;;;;;;5060265;28;20128;-76
2024/01/04 02:44:32;;;;;;;;;;;8.90;99.90;;;;;;5063810;28;20106;-76
2024/01/04 02:46:59;;;;;;;;;;;8.90;99.90;;;;;;5058575;28;20163;-76
2024/01/04 02:49:25;;;;;;;;;;;8.90;99.90;;;;;;5065162;28;19990;-75
2024/01/04 02:51:52;;;;;;;;;;;8.90;99.90;;;;;;5062681;28;20179;-75
2024/01/04 02:54:18;;;;;;;;;;;8.90;99.90;;;;;;5063392;28;25078;-76
2024/01/04 02:56:45;;;;;;;;;;;8.90;99.90;;;;;;5060204;28;20035;-74
2024/01/04 02:59:13;;;;;;;;;;;8.90;99.90;;;;;;5060804;28;25486;-76
2024/01/04 03:01:41;;;;;;;;;;;8.90;99.90;;;;;;5064873;28;20047;-76
2024/01/04 03:04:08;;;;;;;;;;;8.90;99.90;;;;;;5058150;28;20253;-75
2024/01/04 03:06:34;;;;;;;;;;;8.90;99.90;;;;;;5060193;28;19989;-75
2024/01/04 03:09:01;;;;;;;;;;;8.90;99.90;;;;;;5059500;28;20072;-76
2024/01/04 03:11:27;;;;;;;;;;;8.80;99.90;;;;;;5065473;28;25059;-75
2024/01/04 03:13:54;;;;;;;;;;;8.90;99.90;;;;;;5059151;28;19989;-75
2024/01/04 03:16:23;;;;;;;;;;;8.80;99.90;;;;;;5062073;28;25072;-75
2024/01/04 03:18:49;;;;;;;;;;;8.80;99.90;;;;;;5062644;28;20521;-75
2024/01/04 03:21:16;;;;;;;;;;;8.80;99.90;;;;;;5065454;28;20125;-75
2024/01/04 03:23:43;;;;;;;;;;;8.80;99.90;;;;;;5062939;28;20410;-76
2024/01/04 03:26:09;;;;;;;;;;;8.80;99.90;;;;;;5057766;28;20132;-74
2024/01/04 03:28:36;;;;;;;;;;;8.80;99.90;;;;;;5061318;28;19983;-76
2024/01/04 03:31:03;;;;;;;;;;;8.80;99.90;;;;;;5061399;28;20627;-74
2024/01/04 03:33:30;;;;;;;;;;;8.80;99.90;;;;;;5060482;28;25076;-76
2024/01/04 03:35:57;;;;;;;;;;;8.80;99.90;;;;;;5066139;28;20000;-76
2024/01/04 03:38:24;;;;;;;;;;;8.80;99.90;;;;;;5062650;28;25132;-73
2024/01/04 03:40:50;;;;;;;;;;;8.80;99.90;;;;;;5063197;28;20035;-75
2024/01/04 03:43:17;;;;;;;;;;;8.80;99.90;;;;;;5059601;28;25106;-76
2024/01/04 03:45:43;;;;;;;;;;;8.70;99.90;;;;;;5059148;28;20704;-76
2024/01/04 03:48:10;;;;;;;;;;;8.70;99.90;;;;;;5062018;28;25063;-74
2024/01/04 03:50:38;;;;;;;;;;;8.70;99.90;;;;;;5063243;28;19990;-75
2024/01/04 03:53:05;;;;;;;;;;;8.70;99.90;;;;;;5061264;28;20107;-75
2024/01/04 03:55:31;;;;;;;;;;;8.70;99.90;;;;;;5065502;28;20226;-75
2024/01/04 03:57:58;;;;;;;;;;;8.60;99.90;;;;;;5065407;28;20126;-75
2024/01/04 04:00:24;;;;;;;;;;;8.70;99.90;;;;;;5059732;28;25053;-75
2024/01/04 04:02:52;;;;;;;;;;;8.60;99.90;;;;;;5068866;28;20006;-74
2024/01/04 04:05:18;;;;;;;;;;;8.60;99.90;;;;;;5064369;28;25152;-75
2024/01/04 04:07:46;;;;;;;;;;;8.60;99.90;;;;;;5065731;28;19990;-75
2024/01/04 04:10:13;;;;;;;;;;;8.60;99.90;;;;;;5064300;28;25064;-75
2024/01/04 04:12:39;;;;;;;;;;;8.60;99.90;;;;;;5067046;28;20460;-76
2024/01/04 04:15:06;;;;;;;;;;;8.60;99.90;;;;;;5065228;28;20113;-75
2024/01/04 04:17:32;;;;;;;;;;;8.60;99.90;;;;;;5064740;28;20112;-75
2024/01/04 04:19:59;;;;;;;;;;;8.60;99.90;;;;;;5065768;28;25066;-74
2024/01/04 04:22:25;;;;;;;;;;;8.50;99.90;;;;;;5064395;28;20007;-74
2024/01/04 04:24:53;;;;;;;;;;;8.50;99.90;;;;;;5066343;28;20729;-74
2024/01/04 04:27:20;;;;;;;;;;;8.60;99.90;;;;;;5065784;28;19969;-74
2024/01/04 04:29:46;;;;;;;;;;;8.60;99.90;;;;;;5067009;28;25167;-74
2024/01/04 04:32:13;;;;;;;;;;;8.50;99.90;;;;;;5063257;28;19999;-75
2024/01/04 04:34:39;;;;;;;;;;;8.50;99.90;;;;;;5066429;28;25072;-74
2024/01/04 04:37:06;;;;;;;;;;;8.50;99.90;;;;;;5062718;28;20029;-75
2024/01/04 04:39:32;;;;;;;;;;;8.50;99.90;;;;;;5062213;28;20118;-73
2024/01/04 04:42:00;;;;;;;;;;;8.50;99.90;;;;;;5069917;28;25062;-74
2024/01/04 04:44:27;;;;;;;;;;;8.50;99.90;;;;;;5061662;28;20518;-74
2024/01/04 04:46:54;;;;;;;;;;;8.50;99.90;;;;;;5063348;28;25060;-74
2024/01/04 04:49:20;;;;;;;;;;;8.50;99.90;;;;;;5067805;28;19982;-74
2024/01/04 04:51:49;;;;;;;;;;;8.50;99.90;;;;;;5064337;28;25069;-74
2024/01/04 04:54:16;;;;;;;;;;;8.50;99.90;;;;;;5064912;28;19972;-73
2024/01/04 04:56:43;;;;;;;;;;;8.50;99.90;;;;;;5064966;28;20130;-74
2024/01/04 04:59:12;;;;;;;;;;;8.50;99.90;;;;;;5065050;28;20055;-75
2024/01/04 05:01:40;;;;;;;;;;;8.50;99.90;;;;;;5063585;28;25056;-76
2024/01/04 05:04:06;;;;;;;;;;;8.50;99.90;;;;;;5057596;28;20105;-75
2024/01/04 05:06:33;;;;;;;;;;;8.50;99.90;;;;;;5064232;28;25069;-74
2024/01/04 05:08:59;;;;;;;;;;;8.50;99.90;;;;;;5065015;28;20596;-74
2024/01/04 05:11:26;;;;;;;;;;;8.50;99.90;;;;;;5063442;28;25078;-74
2024/01/04 05:13:52;;;;;;;;;;;8.50;99.90;;;;;;5066998;28;19989;-74
2024/01/04 05:16:20;;;;;;;;;;;8.50;99.90;;;;;;5059657;28;25070;-75
2024/01/04 05:18:47;;;;;;;;;;;8.50;99.90;;;;;;5059073;28;19983;-74
2024/01/04 05:21:13;;;;;;;;;;;8.50;99.90;;;;;;5061059;28;20602;-74
2024/01/04 05:23:40;;;;;;;;;;;8.40;99.90;;;;;;5065884;28;25064;-73
2024/01/04 05:26:06;;;;;;;;;;;8.40;99.90;;;;;;5060888;28;19996;-75
2024/01/04 05:28:33;;;;;;;;;;;8.40;99.90;;;;;;5062698;28;25054;-74
2024/01/04 05:31:00;;;;;;;;;;;8.40;99.90;;;;;;5062979;28;19999;-74
2024/01/04 05:33:28;;;;;;;;;;;8.40;99.90;;;;;;5065853;28;25170;-74
2024/01/04 05:35:54;;;;;;;;;;;8.40;99.90;;;;;;5064745;28;19992;-74
2024/01/04 05:38:22;;;;;;;;;;;8.50;99.90;;;;;;5060670;28;25084;-75
2024/01/04 05:40:49;;;;;;;;;;;8.40;99.90;;;;;;5063910;28;19979;-74
2024/01/04 05:43:15;;;;;;;;;;;8.40;99.90;;;;;;5066342;28;25084;-74
2024/01/04 05:45:42;;;;;;;;;;;8.40;99.90;;;;;;5070015;28;20479;-74
2024/01/04 05:48:08;;;;;;;;;;;8.40;99.90;;;;;;5061575;28;25146;-74
2024/01/04 05:50:36;;;;;;;;;;;8.40;99.90;;;;;;5062590;28;19984;-75
2024/01/04 05:53:03;;;;;;;;;;;8.40;99.90;;;;;;5060277;28;20155;-75
2024/01/04 05:55:30;;;;;;;;;;;8.40;99.90;;;;;;5065593;28;20041;-75
2024/01/04 05:57:56;;;;;;;;;;;8.40;99.90;;;;;;5064836;28;19993;-74
2024/01/04 06:00:23;;;;;;;;;;;8.40;99.90;;;;;;5060217;28;25071;-74
2024/01/04 06:02:49;;;;;;;;;;;8.30;99.90;;;;;;5056830;28;19993;-74
2024/01/04 06:05:16;;;;;;;;;;;8.30;99.90;;;;;;5059602;28;20121;-73
2024/01/04 06:07:43;;;;;;;;;;;8.30;99.90;;;;;;5062411;28;20138;-75
2024/01/04 06:10:10;;;;;;;;;;;8.40;99.90;;;;;;5067485;28;20105;-74
2024/01/04 06:12:37;;;;;;;;;;;8.30;99.90;;;;;;5062677;28;20160;-74
2024/01/04 06:15:04;;;;;;;;;;;8.30;99.90;;;;;;5063736;28;20137;-72
2024/01/04 06:17:30;;;;;;;;;;;8.30;99.90;;;;;;5057945;28;25103;-75
2024/01/04 06:19:57;;;;;;;;;;;8.30;99.90;;;;;;5063526;28;20538;-75
2024/01/04 06:22:23;;;;;;;;;;;8.30;99.90;;;;;;5059517;28;25064;-74
2024/01/04 06:24:51;;;;;;;;;;;8.30;99.90;;;;;;5062424;28;20627;-75
2024/01/04 06:27:18;;;;;;;;;;;8.30;99.90;;;;;;5062461;28;25072;-74
2024/01/04 06:29:45;;;;;;;;;;;8.30;99.90;;;;;;5062160;28;19983;-74
2024/01/04 06:32:11;;;;;;;;;;;8.30;99.90;;;;;;5058137;28;25072;-75
2024/01/04 06:34:38;;;;;;;;;;;8.30;99.90;;;;;;5064957;28;19990;-72
2024/01/04 06:37:04;;;;;;;;;;;8.30;99.90;;;;;;5065183;28;25106;-74
2024/01/04 06:39:31;;;;;;;;;;;8.30;99.90;;;;;;5060526;28;19990;-75
2024/01/04 06:42:02;;;;;;;;;;;8.30;99.90;;;;;;5061598;28;20367;-65
2024/01/04 06:44:29;;;;;;;;;;;8.30;99.90;;;;;;5067794;28;25057;-66
2024/01/04 06:46:55;;;;;;;;;;;8.30;99.90;;;;;;5058890;28;20005;-66
2024/01/04 06:49:22;;;;;;;;;;;8.30;99.90;;;;;;5062748;28;25069;-66
2024/01/04 06:51:48;;;;;;;;;;;8.30;99.90;;;;;;5060518;28;20442;-65
2024/01/04 06:54:15;;;;;;;;;;;8.30;99.90;;;;;;5062044;28;25051;-65
2024/01/04 06:56:42;;;;;;;;;;;8.30;99.90;;;;;;5061137;28;19983;-66
2024/01/04 06:59:09;;;;;;;;;;;8.30;99.90;;;;;;5063262;28;25062;-65
2024/01/04 07:01:36;;;;;;;;;;;8.30;99.90;;;;;;5057662;28;20002;-66
2024/01/04 07:04:03;;;;;;;;;;;8.30;99.90;;;;;;5058337;28;20153;-65
2024/01/04 07:06:29;;;;;;;;;;;8.30;99.90;;;;;;5059632;28;20014;-67
2024/01/04 07:08:56;;;;;;;;;;;8.30;99.90;;;;;;5059976;28;25066;-65
2024/01/04 07:11:23;;;;;;;;;;;8.30;99.90;;;;;;5064310;28;20096;-66
2024/01/04 07:13:49;;;;;;;;;;;8.30;99.90;;;;;;5064972;28;20742;-65
2024/01/04 07:16:17;;;;;;;;;;;8.30;99.90;;;;;;5061819;28;20155;-66
2024/01/04 07:18:44;;;;;;;;;;;8.30;99.90;;;;;;5061185;28;25085;-66
2024/01/04 07:21:10;;;;;;;;;;;8.30;99.90;;;;;;5059452;28;20040;-66
2024/01/04 07:23:37;;;;;;;;;;;8.30;99.90;;;;;;5060786;28;25178;-66
2024/01/04 07:26:03;;;;;;;;;;;8.30;99.90;;;;;;5059308;28;19990;-66
2024/01/04 07:28:30;;;;;;;;;;;8.30;99.90;;;;;;5061570;28;25082;-66
2024/01/04 07:30:57;;;;;;;;;;;8.40;99.90;;;;;;5061086;28;20006;-65
2024/01/04 07:33:26;;;;;;;;;;;8.40;99.90;;;;;;5061627;28;20151;-66
2024/01/04 07:35:52;;;;;;;;;;;8.30;99.90;;;;;;5057440;28;25063;-74
2024/01/04 07:38:20;;;;;;;;;;;8.30;99.90;;;;;;5058367;28;19987;-74
2024/01/04 07:40:47;;;;;;;;;;;8.30;99.90;;;;;;5061181;28;25070;-73
2024/01/04 07:43:14;;;;;;;;;;;8.30;99.90;;;;;;5060580;28;19990;-72
2024/01/04 07:45:40;;;;;;;;;;;8.40;99.90;;;;;;5063101;28;25069;-73
2024/01/04 07:48:07;;;;;;;;;;;8.30;99.90;;;;;;5062904;28;19981;-71
2024/01/04 07:50:35;;;;;;;;;;;8.30;99.90;;;;;;5061680;28;25062;-73
2024/01/04 07:53:01;;;;;;;;;;;8.30;99.90;;;;;;5058948;28;20505;-73
2024/01/04 07:55:28;;;;;;;;;;;8.30;99.90;;;;;;5059647;28;25060;-73
2024/01/04 07:57:54;;;;;;;;;;;8.30;99.90;;;;;;5063004;28;19987;-73
2024/01/04 08:00:22;;;;;;;;;;;8.30;99.90;;;;;;5059838;28;19990;-73
2024/01/04 08:02:48;;;;;;;;;;;8.30;99.90;;;;;;5057498;28;20133;-73
2024/01/04 08:05:15;;;;;;;;;;;8.30;99.90;;;;;;5061099;28;20134;-74
2024/01/04 08:07:43;;;;;;;;;;;8.30;99.90;;;;;;5059266;28;25073;-74
2024/01/04 08:10:11;;;;;;;;;;;8.30;99.90;;;;;;5061684;28;20069;-73
2024/01/04 08:12:40;;;;;;;;;;;8.40;99.90;;;;;;5062248;28;20115;-74
2024/01/04 08:15:07;;;;;;;;;;;8.40;99.90;;;;;;5063076;28;25058;-71
2024/01/04 08:17:34;;;;;;;;;;;8.40;99.90;;;;;;5062229;28;20446;-73
2024/01/04 08:20:00;;;;;;;;;;;8.40;99.90;;;;;;5064321;28;25166;-71
2024/01/04 08:22:27;;;;;;;;;;;8.30;99.90;;;;;;5060898;28;20128;-73
2024/01/04 08:24:55;;;;;;;;;;;8.40;99.90;;;;;;5062137;28;20175;-72
2024/01/04 08:27:21;;;;;;;;;;;8.40;99.90;;;;;;5061549;28;20504;-73
2024/01/04 08:29:48;;;;;;;;;;;8.50;99.90;;;;;;5059851;28;20140;-73
2024/01/04 08:32:15;;;;;;;;;;;8.40;99.90;;;;;;5059404;28;20012;-73
2024/01/04 08:34:41;;;;;;;;;;;8.50;99.90;;;;;;5059970;28;25125;-73
2024/01/04 08:37:08;;;;;;;;;;;8.50;99.90;;;;;;5060178;28;19991;-73
2024/01/04 08:39:35;;;;;;;;;;;8.50;99.90;;;;;;5054139;28;20241;-74
2024/01/04 08:42:04;;;;;;;;;;;8.50;99.90;;;;;;5060425;28;20141;-73
2024/01/04 08:44:30;;;;;;;;;;;8.50;99.90;;;;;;5064453;28;20358;-72
2024/01/04 08:46:57;;;;;;;;;;;8.50;99.90;;;;;;5062244;28;25073;-73
2024/01/04 08:49:23;;;;;;;;;;;8.50;99.90;;;;;;5062809;28;19992;-72
2024/01/04 08:51:50;;;;;;;;;;;8.60;99.90;;;;;;5063520;28;25099;-71
2024/01/04 08:54:17;;;;;;;;;;;8.50;99.90;;;;;;5064733;28;20040;-74
2024/01/04 08:56:43;;;;;;;;;;;8.60;99.90;;;;;;5057184;28;25071;-74
2024/01/04 08:59:11;;;;;;;;;;;8.60;99.90;;;;;;5063185;28;20456;-73
2024/01/04 09:01:38;;;;;;;;;;;8.60;99.90;;;;;;5068430;28;20144;-73
2024/01/04 09:04:04;;;;;;;;;;;8.60;99.90;;;;;;5060210;28;20139;-72
2024/01/04 09:06:32;;;;;;;;;;;8.60;99.90;;;;;;5066307;28;19998;-73
2024/01/04 09:08:59;;;;;;;;;;;8.60;99.90;;;;;;5063546;28;25064;-74
2024/01/04 09:11:28;;;;;;;;;;;8.60;99.90;;;;;;5065912;28;19990;-74
2024/01/04 09:13:55;;;;;;;;;;;8.60;99.90;;;;;;5059395;28;25073;-74
2024/01/04 09:16:23;;;;;;;;;;;8.70;99.90;;;;;;5057877;28;20003;-74
2024/01/04 09:18:49;;;;;;;;;;;8.70;99.90;;;;;;5063634;28;25142;-74
2024/01/04 09:21:16;;;;;;;;;;;8.70;99.90;;;;;;5058714;28;19981;-74
2024/01/04 09:23:43;;;;;;;;;;;8.70;99.90;;;;;;5063768;28;20134;-74
2024/01/04 09:26:09;;;;;;;;;;;8.70;99.90;;;;;;5062086;28;20151;-73
2024/01/04 09:28:36;;;;;;;;;;;8.60;99.90;;;;;;5065492;28;19986;-75
2024/01/04 09:31:03;;;;;;;;;;;8.70;99.90;;;;;;5063553;28;25075;-75
2024/01/04 09:33:30;;;;;;;;;;;8.70;99.90;;;;;;5061677;28;19996;-74
2024/01/04 09:35:57;;;;;;;;;;;8.70;99.90;;;;;;5063956;28;20142;-74
2024/01/04 09:38:25;;;;;;;;;;;8.70;99.90;;;;;;5054884;28;20022;-74
2024/01/04 09:40:52;;;;;;;;;;;8.70;99.90;;;;;;5060309;28;25078;-75
2024/01/04 09:43:20;;;;;;;;;;;8.70;99.90;;;;;;5062944;28;20522;-74
2024/01/04 09:45:47;;;;;;;;;;;8.70;99.90;;;;;;5063874;28;20137;-73
2024/01/04 09:48:17;;;;;;;;;;;8.70;99.90;;;;;;5061758;28;25086;-75
2024/01/04 09:50:46;;;;;;;;;;;8.70;99.90;;;;;;5060668;28;20785;-74
2024/01/04 09:53:13;;;;;;;;;;;8.70;99.90;;;;;;5064075;28;20522;-75
2024/01/04 09:55:40;;;;;;;;;;;8.70;99.90;;;;;;5054044;28;20036;-74
2024/01/04 09:58:09;;;;;;;;;;;8.70;99.90;;;;;;5066163;28;19990;-75
2024/01/04 10:00:35;;;;;;;;;;;8.80;99.90;;;;;;5060076;28;25073;-74
2024/01/04 10:03:03;;;;;;;;;;;8.80;99.90;;;;;;5053929;28;20788;-75
2024/01/04 10:05:32;;;;;;;;;;;8.80;99.90;;;;;;5058537;28;20153;-76
2024/01/04 10:08:05;;;;;;;;;;;8.80;99.90;;;;;;5060393;28;25077;-74
2024/01/04 10:10:34;;;;;;;;;;;8.80;99.90;;;;;;5061105;28;19981;-76
2024/01/04 10:13:02;;;;;;;;;;;8.90;99.90;;;;;;5064928;28;20499;-74
2024/01/04 10:15:29;;;;;;;;;;;8.90;99.90;;;;;;5058995;28;20249;-74
2024/01/04 10:17:58;;;;;;;;;;;8.90;99.90;;;;;;5061348;28;19998;-76
2024/01/04 10:20:24;;;;;;;;;;;8.90;99.90;;;;;;5061866;28;20116;-75
2024/01/04 10:22:51;;;;;;;;;;;8.90;99.90;;;;;;5053782;28;25151;-74
2024/01/04 10:25:19;;;;;;;;;;;8.90;99.90;;;;;;5059852;28;20004;-76
2024/01/04 10:27:54;;;;;;;;;;;8.90;99.90;;;;;;5063116;28;25061;-76
2024/01/04 10:30:20;;;;;;;;;;;8.90;99.90;;;;;;5060302;28;19979;-76
2024/01/04 10:32:49;;;;;;;;;;;8.90;99.90;;;;;;5061286;28;25088;-77
2024/01/04 10:35:16;;;;;;;;;;;9.00;99.90;;;;;;5062348;28;19982;-76
2024/01/04 10:37:42;;;;;;;;;;;8.90;99.90;;;;;;5058300;28;25057;-74
2024/01/04 10:40:11;;;;;;;;;;;9.00;99.90;;;;;;5058201;28;20067;-74
2024/01/04 10:42:39;;;;;;;;;;;9.00;99.90;;;;;;5061160;28;20148;-73
2024/01/04 10:45:07;;;;;;;;;;;9.00;99.90;;;;;;5061444;28;25079;-73
2024/01/04 10:47:34;;;;;;;;;;;9.00;99.90;;;;;;5061424;28;20086;-74
2024/01/04 10:50:03;;;;;;;;;;;9.10;99.90;;;;;;5062812;28;25063;-73
2024/01/04 10:52:31;;;;;;;;;;;9.00;99.90;;;;;;5065501;28;20486;-74
2024/01/04 10:54:57;;;;;;;;;;;9.10;99.90;;;;;;5061581;28;24803;-74
2024/01/04 10:57:25;;;;;;;;;;;9.10;99.90;;;;;;5064967;28;19985;-74
2024/01/04 10:59:53;;;;;;;;;;;9.10;99.90;;;;;;5062955;28;20227;-74
2024/01/04 11:02:20;;;;;;;;;;;9.10;99.90;;;;;;5058825;28;20385;-74
2024/01/04 11:04:47;;;;;;;;;;;9.20;99.90;;;;;;5060035;28;20135;-75
2024/01/04 11:07:15;;;;;;;;;;;9.10;99.90;;;;;;5061751;28;19993;-74
2024/01/04 11:09:41;;;;;;;;;;;9.10;99.90;;;;;;5057601;28;20235;-74
2024/01/04 11:12:09;;;;;;;;;;;9.10;99.90;;;;;;5065750;28;20031;-75
2024/01/04 11:14:36;;;;;;;;;;;9.10;99.90;;;;;;5061858;28;20164;-74
2024/01/04 11:17:26;;;;;;;;;;;9.10;99.90;;;;;;5059549;28;25081;-74
2024/01/04 11:20:00;;;;;;;;;;;9.10;99.90;;;;;;5063183;28;19977;-74
2024/01/04 11:22:35;;;;;;;;;;;9.10;99.90;;;;;;5058162;28;20145;-74
2024/01/04 11:25:09;;;;;;;;;;;9.10;99.90;;;;;;5061831;28;20178;-73
2024/01/04 11:27:36;;;;;;;;;;;9.10;99.90;;;;;;5055558;28;19981;-73
2024/01/04 11:30:04;;;;;;;;;;;9.20;99.90;;;;;;5061036;28;25169;-75
2024/01/04 11:32:33;;;;;;;;;;;9.10;99.90;;;;;;5061791;28;20006;-74
2024/01/04 11:35:01;;;;;;;;;;;9.10;99.90;;;;;;5064950;28;20134;-73
2024/01/04 11:37:27;;;;;;;;;;;9.10;99.90;;;;;;5059249;28;20048;-74
2024/01/04 11:39:54;;;;;;;;;;;9.10;99.90;;;;;;5059066;28;20107;-73
2024/01/04 11:42:22;;;;;;;;;;;9.10;99.90;;;;;;5064338;28;25110;-74
2024/01/04 11:44:49;;;;;;;;;;;9.10;99.90;;;;;;5058700;28;20480;-75
2024/01/04 11:47:15;;;;;;;;;;;9.10;99.90;;;;;;5060711;28;25081;-74
2024/01/04 11:49:47;;;;;;;;;;;9.10;99.90;;;;;;5060136;28;20349;-74
2024/01/04 11:52:15;;;;;;;;;;;9.10;99.90;;;;;;5060702;28;20157;-73
2024/01/04 11:54:42;;;;;;;;;;;9.10;99.90;;;;;;5054358;28;19985;-73
2024/01/04 11:57:18;;;;;;;;;;;9.10;99.90;;;;;;5054484;28;20112;-74
2024/01/04 11:59:45;;;;;;;;;;;9.10;99.90;;;;;;5061576;28;20143;-74
2024/01/04 12:02:16;;;;;;;;;;;9.10;99.90;;;;;;5059364;28;20034;-74
2024/01/04 12:04:43;;;;;;;;;;;9.10;99.90;;;;;;5062605;28;19989;-73
2024/01/04 12:07:11;;;;;;;;;;;9.10;99.90;;;;;;5055421;28;26168;-75
2024/01/04 12:09:39;;;;;;;;;;;9.20;99.90;;;;;;5062836;28;19990;-73
2024/01/04 12:12:07;;;;;;;;;;;9.10;99.90;;;;;;5061345;28;20176;-74
2024/01/04 12:14:34;;;;;;;;;;;9.20;99.90;;;;;;5058090;28;25078;-74
2024/01/04 12:17:01;;;;;;;;;;;9.10;99.90;;;;;;5061586;28;20045;-74
2024/01/04 12:19:28;;;;;;;;;;;9.20;99.90;;;;;;5066752;28;20504;-76
2024/01/04 12:21:54;;;;;;;;;;;9.20;99.90;;;;;;5063136;28;25150;-73
2024/01/04 12:24:23;;;;;;;;;;;9.20;99.90;;;;;;5063686;28;20007;-73
2024/01/04 12:26:49;;;;;;;;;;;9.20;99.90;;;;;;5058396;28;25075;-74
2024/01/04 12:29:16;;;;;;;;;;;9.20;99.90;;;;;;5066354;28;19983;-73
2024/01/04 12:31:43;;;;;;;;;;;9.20;99.90;;;;;;5064150;28;25136;-75
2024/01/04 12:34:10;;;;;;;;;;;9.20;99.90;;;;;;5063458;28;20006;-74
2024/01/04 12:36:37;;;;;;;;;;;9.30;99.90;;;;;;5066110;28;20117;-72
2024/01/04 12:39:07;;;;;;;;;;;9.30;99.90;;;;;;5059899;28;20165;-73
2024/01/04 12:41:37;;;;;;;;;;;9.20;99.90;;;;;;5064076;28;19994;-73
2024/01/04 12:44:04;;;;;;;;;;;9.20;99.90;;;;;;5067463;28;25067;-73
2024/01/04 12:46:31;;;;;;;;;;;9.20;99.90;;;;;;5062588;28;20101;-74
2024/01/04 12:49:05;;;;;;;;;;;9.20;99.90;;;;;;5063271;28;25067;-72
2024/01/04 12:51:35;;;;;;;;;;;9.20;99.90;;;;;;5064791;28;19986;-74
2024/01/04 12:54:02;;;;;;;;;;;9.30;99.90;;;;;;5064597;28;20129;-73
2024/01/04 12:56:28;;;;;;;;;;;9.30;99.90;;;;;;5061972;28;25069;-73
2024/01/04 12:58:56;;;;;;;;;;;9.30;99.90;;;;;;5064383;28;19992;-75
2024/01/04 13:01:23;;;;;;;;;;;9.30;99.90;;;;;;5061651;28;25056;-74
2024/01/04 13:03:49;;;;;;;;;;;9.30;99.90;;;;;;5061897;28;20011;-73
2024/01/04 13:06:16;;;;;;;;;;;9.30;99.90;;;;;;5061815;28;20155;-76
2024/01/04 13:08:43;;;;;;;;;;;9.30;99.90;;;;;;5061436;28;25164;-74
2024/01/04 13:11:10;;;;;;;;;;;9.30;99.90;;;;;;5065412;28;19988;-73
2024/01/04 13:13:37;;;;;;;;;;;9.30;99.90;;;;;;5067346;28;20169;-75
2024/01/04 13:16:05;;;;;;;;;;;9.30;99.90;;;;;;5065410;28;20012;-74
2024/01/04 13:18:32;;;;;;;;;;;9.30;99.90;;;;;;5065058;28;20186;-74
2024/01/04 13:20:59;;;;;;;;;;;9.30;99.90;;;;;;5064376;28;20121;-73
2024/01/04 13:23:26;;;;;;;;;;;9.30;99.90;;;;;;5062047;28;25169;-74
2024/01/04 13:25:53;;;;;;;;;;;9.30;99.90;;;;;;5060871;28;19997;-74
2024/01/04 13:28:19;;;;;;;;;;;9.30;99.90;;;;;;5062328;28;25074;-74
2024/01/04 13:30:46;;;;;;;;;;;9.30;99.90;;;;;;5060474;28;20006;-76
2024/01/04 13:33:14;;;;;;;;;;;9.20;99.90;;;;;;5058240;28;20163;-75
2024/01/04 13:35:41;;;;;;;;;;;9.30;99.90;;;;;;5061501;28;25105;-75
2024/01/04 13:38:08;;;;;;;;;;;9.20;99.90;;;;;;5061918;28;19983;-75
2024/01/04 13:40:35;;;;;;;;;;;9.30;99.90;;;;;;5060768;28;20194;-75
2024/01/04 13:43:02;;;;;;;;;;;9.30;99.90;;;;;;5063399;28;25085;-75
2024/01/04 13:45:28;;;;;;;;;;;9.30;99.90;;;;;;5062268;28;20011;-75
2024/01/04 13:47:55;;;;;;;;;;;9.30;99.90;;;;;;5060996;28;25078;-74
2024/01/04 13:50:23;;;;;;;;;;;9.30;99.90;;;;;;5066325;28;19983;-74
2024/01/04 13:52:50;;;;;;;;;;;9.30;99.90;;;;;;5061379;28;21004;-75
2024/01/04 13:55:16;;;;;;;;;;;9.30;99.90;;;;;;5064373;28;25060;-76
2024/01/04 13:57:43;;;;;;;;;;;9.40;99.90;;;;;;5061573;28;21321;-76
2024/01/04 14:00:11;;;;;;;;;;;9.30;99.90;;;;;;5062857;28;25168;-75
2024/01/04 14:02:37;;;;;;;;;;;9.30;99.90;;;;;;5062217;28;20005;-76
2024/01/04 14:05:05;;;;;;;;;;;9.30;99.90;;;;;;5062460;28;25081;-75
2024/01/04 14:07:34;;;;;;;;;;;9.30;99.90;;;;;;5051516;28;20015;-76
2024/01/04 14:10:01;;;;;;;;;;;9.40;99.90;;;;;;5060977;28;20127;-75
2024/01/04 14:12:27;;;;;;;;;;;9.30;99.90;;;;;;5060195;28;20145;-77
2024/01/04 14:14:54;;;;;;;;;;;9.30;99.90;;;;;;5062466;28;25069;-75
2024/01/04 14:17:20;;;;;;;;;;;9.30;99.90;;;;;;5063497;28;20084;-76
2024/01/04 14:19:47;;;;;;;;;;;9.40;99.90;;;;;;5057526;28;25074;-76
2024/01/04 14:22:13;;;;;;;;;;;9.40;99.90;;;;;;5062392;28;20061;-75
2024/01/04 14:24:42;;;;;;;;;;;9.30;99.90;;;;;;5057498;28;25063;-75
2024/01/04 14:27:09;;;;;;;;;;;9.30;99.90;;;;;;5062333;28;20006;-78
2024/01/04 14:29:35;;;;;;;;;;;9.30;99.90;;;;;;5059676;28;25064;-81